createdAt,value
2022-08-22T00:01:54.671Z,99962.98
2022-08-22T00:02:57.485Z,99961.04
2022-08-22T00:02:58.606Z,99938.64
2022-08-22T00:05:02.305Z,99965.37
2022-08-22T00:07:57.311Z,99960.04
2022-08-22T00:10:37.803Z,99963.40
2022-08-22T00:13:16.471Z,99965.16
2022-08-22T00:15:58.566Z,99963.92
2022-08-22T00:18:32.190Z,99966.13
2022-08-22T00:21:11.514Z,99965.33
2022-08-22T00:24:25.138Z,99967.09
2022-08-22T00:27:02.432Z,99966.38
2022-08-22T00:29:56.854Z,99966.84
2022-08-22T00:32:36.365Z,99968.96
2022-08-22T00:35:18.541Z,99970.73
2022-08-22T00:38:16.730Z,99971.14
2022-08-22T00:41:12.545Z,99975.33
2022-08-22T00:44:33.340Z,99977.42
2022-08-22T00:47:41.967Z,99977.29
2022-08-22T00:50:30.635Z,99977.09
2022-08-22T00:53:16.302Z,99977.30
2022-08-22T00:56:11.783Z,99983.98
2022-08-22T00:59:17.976Z,99986.61
2022-08-22T01:02:32.770Z,99990.50
2022-08-22T01:05:40.441Z,99995.27
2022-08-22T01:08:22.583Z,99996.56
2022-08-22T01:11:47.442Z,99997.53
2022-08-22T01:14:39.825Z,99996.92
2022-08-22T01:17:52.655Z,99997.77
2022-08-22T01:30:42.300Z,99996.13
2022-08-22T01:33:31.133Z,100002.10
2022-08-22T01:36:29.417Z,100004.08
2022-08-22T01:39:14.630Z,100002.08
2022-08-22T01:42:17.382Z,100003.20
2022-08-22T01:44:51.480Z,100001.14
2022-08-22T01:47:30.959Z,100000.66
2022-08-22T01:50:29.932Z,100003.63
2022-08-22T01:53:04.420Z,100000.79
2022-08-22T01:55:45.018Z,100002.23
2022-08-22T01:58:22.712Z,99998.44
2022-08-22T02:01:19.334Z,99999.46
2022-08-22T02:04:10.828Z,100002.02
2022-08-22T02:07:00.783Z,100003.59
2022-08-22T02:10:08.194Z,100002.96
2022-08-22T02:12:45.566Z,100003.08
2022-08-22T02:15:43.921Z,100002.10
2022-08-22T02:18:23.751Z,100005.90
2022-08-22T02:21:00.243Z,100006.90
2022-08-22T02:23:51.021Z,100011.05
2022-08-22T02:26:46.002Z,100013.67
2022-08-22T02:29:21.524Z,100011.52
2022-08-22T02:32:00.823Z,100012.77
2022-08-22T02:34:40.986Z,100012.64
2022-08-22T02:37:37.392Z,100015.12
2022-08-22T02:40:48.477Z,100017.27
2022-08-22T02:43:27.499Z,100018.67
2022-08-22T02:46:23.683Z,100020.77
2022-08-22T02:49:02.889Z,100025.87
2022-08-22T02:51:46.657Z,100023.89
2022-08-22T02:54:31.409Z,100027.18
2022-08-22T02:57:20.390Z,100021.67
2022-08-22T03:00:31.270Z,100024.08
2022-08-22T03:03:20.856Z,100027.21
2022-08-22T03:06:02.109Z,100027.91
2022-08-22T03:08:42.788Z,100030.09
2022-08-22T03:11:34.247Z,100031.94
2022-08-22T03:14:20.220Z,100033.84
2022-08-22T03:17:12.491Z,100031.86
2022-08-22T03:20:13.075Z,100032.05
2022-08-22T03:23:03.101Z,100032.45
2022-08-22T03:25:47.515Z,100033.32
2022-08-22T03:28:30.377Z,100029.97
2022-08-22T03:31:16.910Z,100029.03
2022-08-22T03:34:07.180Z,100023.16
2022-08-22T03:36:36.682Z,100026.23
2022-08-22T03:39:35.892Z,100021.15
2022-08-22T03:42:54.081Z,100021.64
2022-08-22T03:46:06.512Z,100021.65
2022-08-22T03:49:06.220Z,100025.46
2022-08-22T03:52:15.028Z,100027.27
2022-08-22T04:01:26.069Z,100027.59
2022-08-22T04:04:11.960Z,100030.50
2022-08-22T04:07:28.320Z,100032.01
2022-08-22T04:10:23.898Z,100030.75
2022-08-22T04:13:48.700Z,100036.25
2022-08-22T04:25:56.713Z,100051.08
2022-08-22T04:28:51.452Z,100050.38
2022-08-22T04:31:31.083Z,100045.15
2022-08-22T04:34:27.277Z,100047.98
2022-08-22T04:37:51.499Z,100050.36
2022-08-22T04:40:27.964Z,100045.98
2022-08-22T04:43:16.359Z,100048.00
2022-08-22T04:45:57.169Z,100049.44
2022-08-22T04:48:34.317Z,100050.79
2022-08-22T04:54:06.041Z,100053.77
2022-08-22T04:57:12.786Z,100053.05
2022-08-22T04:59:45.585Z,100050.21
2022-08-22T05:02:24.510Z,100049.13
2022-08-22T05:05:13.576Z,100048.80
2022-08-22T05:07:54.729Z,100055.13
2022-08-22T05:10:28.097Z,100057.43
2022-08-22T05:13:06.220Z,100057.12
2022-08-22T05:15:38.884Z,100060.36
2022-08-22T05:18:14.285Z,100067.60
2022-08-22T05:20:49.082Z,100069.10
2022-08-22T05:23:48.662Z,100070.98
2022-08-22T05:26:19.897Z,100070.79
2022-08-22T05:28:56.949Z,100071.65
2022-08-22T05:31:55.177Z,100069.09
2022-08-22T05:34:29.966Z,100066.70
2022-08-22T05:37:30.115Z,100069.55
2022-08-22T05:40:02.963Z,100071.27
2022-08-22T05:42:37.932Z,100068.33
2022-08-22T05:45:12.138Z,100067.95
2022-08-22T05:47:50.688Z,100065.61
2022-08-22T05:50:29.019Z,100059.80
2022-08-22T05:53:39.405Z,100059.44
2022-08-22T05:56:33.651Z,100064.00
2022-08-22T05:59:26.733Z,100066.64
2022-08-22T06:02:27.273Z,100063.59
2022-08-22T06:05:07.573Z,100060.39
2022-08-22T06:07:51.453Z,100063.46
2022-08-22T06:10:29.467Z,100064.92
2022-08-22T06:13:09.022Z,100065.70
2022-08-22T06:16:22.543Z,100066.85
2022-08-22T06:18:54.014Z,100068.80
2022-08-22T06:21:39.347Z,100064.59
2022-08-22T06:24:19.285Z,100066.27
2022-08-22T06:26:53.602Z,100075.05
2022-08-22T06:29:53.784Z,100073.19
2022-08-22T06:32:44.423Z,100069.94
2022-08-22T06:35:28.082Z,100072.56
2022-08-22T06:38:01.933Z,100074.41
2022-08-22T06:40:32.403Z,100077.07
2022-08-22T06:43:04.209Z,100084.73
2022-08-22T06:45:37.213Z,100090.53
2022-08-22T06:48:06.268Z,100088.39
2022-08-22T06:50:42.214Z,100092.31
2022-08-22T06:53:27.653Z,100094.31
2022-08-22T06:56:03.063Z,100095.84
2022-08-22T06:58:42.834Z,100097.88
2022-08-22T07:01:18.774Z,100096.42
2022-08-22T07:03:53.033Z,100097.08
2022-08-22T07:06:34.661Z,100093.54
2022-08-22T07:09:06.905Z,100096.05
2022-08-22T07:11:40.901Z,100097.84
2022-08-22T07:14:15.053Z,100099.98
2022-08-22T07:17:05.703Z,100105.67
2022-08-22T07:19:41.925Z,100102.28
2022-08-22T07:22:21.937Z,100102.07
2022-08-22T07:25:14.003Z,100105.86
2022-08-22T07:27:57.192Z,100109.62
2022-08-22T07:30:59.292Z,100110.96
2022-08-22T07:33:57.024Z,100117.61
2022-08-22T07:36:56.112Z,100114.41
2022-08-22T07:39:38.438Z,100111.84
2022-08-22T07:42:30.171Z,100111.35
2022-08-22T07:45:14.580Z,100113.08
2022-08-22T07:48:04.554Z,100121.35
2022-08-22T07:50:43.866Z,100126.44
2022-08-22T07:53:31.108Z,100127.56
2022-08-22T07:56:04.020Z,100127.00
2022-08-22T07:58:40.468Z,100130.25
2022-08-22T08:01:17.970Z,100126.77
2022-08-22T08:04:13.043Z,100131.81
2022-08-22T08:06:42.207Z,100131.16
2022-08-22T08:09:17.701Z,100133.25
2022-08-22T08:11:53.625Z,100132.27
2022-08-22T08:15:46.383Z,100137.21
2022-08-22T08:18:39.677Z,100138.20
2022-08-22T08:21:25.785Z,100140.96
2022-08-22T08:23:56.640Z,100139.77
2022-08-22T08:27:00.395Z,100137.95
2022-08-22T08:29:32.712Z,100135.42
2022-08-22T08:32:12.172Z,100141.27
2022-08-22T08:34:46.604Z,100138.64
2022-08-22T08:37:24.059Z,100139.71
2022-08-22T08:39:59.971Z,100140.19
2022-08-22T08:43:20.871Z,100139.91
2022-08-22T08:46:29.870Z,100133.52
2022-08-22T08:49:21.056Z,100133.45
2022-08-22T08:52:24.489Z,100135.77
2022-08-22T08:55:19.714Z,100133.79
2022-08-22T08:58:26.331Z,100137.92
2022-08-22T09:01:07.598Z,100136.30
2022-08-22T09:04:15.217Z,100130.61
2022-08-22T09:32:41.626Z,100140.44
2022-08-22T09:35:59.645Z,100142.86
2022-08-22T09:39:17.952Z,100147.38
2022-08-22T09:42:17.852Z,100149.08
2022-08-22T09:45:31.928Z,100150.48
2022-08-22T09:48:21.796Z,100152.27
2022-08-22T09:51:31.476Z,100149.45
2022-08-22T09:54:50.909Z,100149.58
2022-08-22T09:57:28.377Z,100154.55
2022-08-22T10:00:15.621Z,100151.27
2022-08-22T10:02:53.109Z,100153.63
2022-08-22T10:06:09.137Z,100149.94
2022-08-22T10:09:16.981Z,100142.70
2022-08-22T10:11:57.359Z,100144.63
2022-08-22T10:14:34.429Z,100143.00
2022-08-22T10:17:25.799Z,100141.92
2022-08-22T10:20:06.200Z,100139.35
2022-08-22T10:23:06.185Z,100145.18
2022-08-22T10:32:50.815Z,100140.59
2022-08-22T10:35:44.843Z,100140.86
2022-08-22T10:38:46.493Z,100137.61
2022-08-22T10:41:41.019Z,100141.85
2022-08-22T10:44:54.808Z,100141.95
2022-08-22T10:47:35.067Z,100143.16
2022-08-22T10:50:17.255Z,100141.04
2022-08-22T10:53:18.984Z,100138.36
2022-08-22T10:56:10.510Z,100140.41
2022-08-22T10:59:01.641Z,100140.46
2022-08-22T11:02:05.030Z,100142.09
2022-08-22T11:05:08.751Z,100135.53
2022-08-22T11:07:56.413Z,100135.84
2022-08-22T11:10:54.297Z,100136.59
2022-08-22T11:14:02.098Z,100131.67
2022-08-22T11:17:09.144Z,100132.28
2022-08-22T11:20:21.414Z,100128.36
2022-08-22T11:23:23.706Z,100131.87
2022-08-22T11:26:33.737Z,100133.81
2022-08-22T11:29:38.761Z,100131.70
2022-08-22T11:32:33.179Z,100133.58
2022-08-22T11:35:26.468Z,100136.08
2022-08-22T11:38:19.188Z,100135.21
2022-08-22T11:41:06.433Z,100139.69
2022-08-22T11:44:12.367Z,100140.61
2022-08-22T11:46:47.813Z,100135.86
2022-08-22T11:49:33.062Z,100137.27
2022-08-22T11:52:17.482Z,100136.89
2022-08-22T11:55:12.468Z,100132.92
2022-08-22T11:57:53.000Z,100137.77
2022-08-22T12:00:28.971Z,100137.77
2022-08-22T12:03:23.263Z,100136.59
2022-08-22T12:06:42.116Z,100136.92
2022-08-22T12:09:38.452Z,100137.36
2022-08-22T12:13:04.568Z,100134.90
2022-08-22T12:16:01.200Z,100136.04
2022-08-22T12:19:06.712Z,100126.84
2022-08-22T12:22:03.845Z,100120.88
2022-08-22T12:24:34.477Z,100124.98
2022-08-22T12:27:28.718Z,100125.23
2022-08-22T12:30:30.437Z,100124.31
2022-08-22T12:33:31.613Z,100126.14
2022-08-22T12:36:39.761Z,100128.95
2022-08-22T12:40:01.695Z,100125.16
2022-08-22T12:42:43.501Z,100121.32
2022-08-22T12:45:31.078Z,100120.52
2022-08-22T12:48:47.721Z,100119.23
2022-08-22T12:51:20.961Z,100116.30
2022-08-22T12:54:19.062Z,100122.73
2022-08-22T12:56:48.324Z,100124.52
2022-08-22T12:59:43.150Z,100117.99
2022-08-22T13:02:27.938Z,100118.06
2022-08-22T13:05:19.622Z,100121.13
2022-08-22T13:08:04.425Z,100119.58
2022-08-22T13:10:45.736Z,100123.40
2022-08-22T13:13:55.992Z,100122.58
2022-08-22T13:16:40.349Z,100125.97
2022-08-22T13:19:24.771Z,100126.50
2022-08-22T13:22:08.897Z,100123.69
2022-08-22T13:25:08.674Z,100125.39
2022-08-22T13:27:52.588Z,100120.16
2022-08-22T13:30:38.070Z,100119.71
2022-08-22T13:33:12.527Z,100116.69
2022-08-22T13:35:56.304Z,100108.41
2022-08-22T13:38:56.633Z,100111.07
2022-08-22T13:41:33.691Z,100111.36
2022-08-22T13:44:10.436Z,100113.87
2022-08-22T13:47:10.937Z,100117.90
2022-08-22T13:49:39.433Z,100121.63
2022-08-22T13:52:40.735Z,100121.20
2022-08-22T13:55:35.334Z,100122.55
2022-08-22T13:58:45.117Z,100119.59
2022-08-22T14:01:37.350Z,100115.56
2022-08-22T14:04:41.603Z,100115.38
2022-08-22T14:07:50.268Z,100110.96
2022-08-22T14:11:12.154Z,100114.52
2022-08-22T14:13:51.844Z,100109.21
2022-08-22T14:17:00.702Z,100105.30
2022-08-22T14:19:52.661Z,100100.51
2022-08-22T14:22:32.491Z,100099.30
2022-08-22T14:25:29.755Z,100098.62
2022-08-22T14:28:09.694Z,100097.00
2022-08-22T14:31:13.857Z,100100.95
2022-08-22T14:33:57.394Z,100099.39
2022-08-22T14:36:45.968Z,100100.73
2022-08-22T14:39:51.324Z,100103.31
2022-08-22T14:42:40.243Z,100107.02
2022-08-22T14:45:26.702Z,100109.06
2022-08-22T14:48:50.300Z,100111.13
2022-08-22T14:51:25.753Z,100111.33
2022-08-22T14:54:21.055Z,100109.94
2022-08-22T14:56:55.320Z,100104.92
2022-08-22T14:59:51.163Z,100102.95
2022-08-22T15:02:30.077Z,100100.82
2022-08-22T15:05:13.765Z,100102.66
2022-08-22T15:07:53.190Z,100098.81
2022-08-22T15:10:33.254Z,100096.58
2022-08-22T15:13:08.595Z,100103.59
2022-08-22T15:15:54.167Z,100102.33
2022-08-22T15:18:30.744Z,100106.71
2022-08-22T15:21:33.607Z,100099.63
2022-08-22T15:24:14.431Z,100095.91
2022-08-22T15:26:55.668Z,100094.29
2022-08-22T15:29:30.623Z,100091.77
2022-08-22T15:32:04.930Z,100094.61
2022-08-22T15:34:42.588Z,100091.77
2022-08-22T15:37:20.850Z,100093.20
2022-08-22T15:40:11.938Z,100085.66
2022-08-22T15:42:48.200Z,100088.02
2022-08-22T15:45:37.666Z,100081.30
2022-08-22T15:48:24.607Z,100079.17
2022-08-22T15:51:09.374Z,100075.11
2022-08-22T15:54:16.266Z,100070.60
2022-08-22T15:57:13.761Z,100071.45
2022-08-22T16:00:27.938Z,100069.61
2022-08-22T16:03:08.871Z,100068.13
2022-08-22T16:05:55.214Z,100066.14
2022-08-22T16:08:41.856Z,100065.57
2022-08-22T16:11:35.042Z,100070.12
2022-08-22T16:15:05.573Z,100073.65
2022-08-22T16:17:53.418Z,100073.43
2022-08-22T16:23:52.584Z,100070.02
2022-08-22T16:29:42.805Z,100071.42
2022-08-22T16:32:28.731Z,100072.34
2022-08-22T16:34:57.648Z,100077.52
2022-08-22T16:37:45.031Z,100078.58
2022-08-22T16:40:23.571Z,100077.70
2022-08-22T16:43:21.222Z,100072.88
2022-08-22T16:45:51.561Z,100073.41
2022-08-22T16:48:38.000Z,100072.56
2022-08-22T16:51:14.562Z,100074.29
2022-08-22T16:54:05.711Z,100073.16
2022-08-22T16:56:36.395Z,100077.85
2022-08-22T16:59:22.518Z,100081.15
2022-08-22T17:02:19.813Z,100085.01
2022-08-22T17:05:04.664Z,100088.99
2022-08-22T17:07:52.379Z,100092.91
2022-08-22T17:10:39.127Z,100100.61
2022-08-22T17:14:05.141Z,100109.06
2022-08-22T17:17:22.153Z,100117.23
2022-08-22T17:19:59.783Z,100121.88
2022-08-22T17:22:58.570Z,100127.78
2022-08-22T17:25:58.251Z,100129.34
2022-08-22T17:29:09.051Z,100131.64
2022-08-22T17:32:15.830Z,100130.41
2022-08-22T17:34:59.730Z,100130.83
2022-08-22T17:37:55.336Z,100131.48
2022-08-22T17:41:12.354Z,100130.36
2022-08-22T17:44:00.856Z,100125.91
2022-08-22T17:46:50.483Z,100128.83
2022-08-22T17:49:23.180Z,100128.59
2022-08-22T17:52:03.403Z,100129.98
2022-08-22T17:54:57.497Z,100129.73
2022-08-22T17:57:47.949Z,100131.10
2022-08-22T18:00:38.424Z,100129.99
2022-08-22T18:03:39.808Z,100129.97
2022-08-22T18:06:30.913Z,100130.92
2022-08-22T18:09:14.397Z,100134.83
2022-08-22T18:12:00.213Z,100132.30
2022-08-22T18:14:45.483Z,100136.59
2022-08-22T18:17:42.053Z,100142.50
2022-08-22T18:20:26.416Z,100147.92
2022-08-22T18:23:21.856Z,100152.02
2022-08-22T18:26:19.504Z,100155.21
2022-08-22T18:29:18.554Z,100154.83
2022-08-22T18:32:14.369Z,100159.20
2022-08-22T18:34:54.811Z,100160.10
2022-08-22T18:37:49.245Z,100164.96
2022-08-22T18:40:34.217Z,100168.50
2022-08-22T18:43:39.527Z,100167.88
2022-08-22T18:46:38.231Z,100160.48
2022-08-22T18:49:34.072Z,100154.64
2022-08-22T18:52:19.566Z,100152.33
2022-08-22T18:55:28.574Z,100151.98
2022-08-22T18:58:05.565Z,100163.09
2022-08-22T19:01:06.515Z,100161.80
2022-08-22T19:04:02.903Z,100167.71
2022-08-22T19:06:50.544Z,100164.41
2022-08-22T19:09:41.166Z,100168.50
2022-08-22T19:12:33.052Z,100169.70
2022-08-22T19:15:38.535Z,100175.27
2022-08-22T19:18:19.158Z,100169.20
2022-08-22T19:21:43.524Z,100172.50
2022-08-22T19:24:57.056Z,100174.05
2022-08-22T19:27:31.576Z,100177.79
2022-08-22T19:30:53.622Z,100178.27
2022-08-22T19:33:48.908Z,100182.19
2022-08-22T19:36:35.467Z,100182.27
2022-08-22T19:39:10.247Z,100182.25
2022-08-22T19:42:02.528Z,100186.05
2022-08-22T19:44:42.965Z,100181.48
2022-08-22T19:47:30.270Z,100182.17
2022-08-22T19:50:37.494Z,100177.30
2022-08-22T19:53:33.683Z,100177.16
2022-08-22T19:56:14.356Z,100178.11
2022-08-22T19:59:26.668Z,100180.69
2022-08-22T20:02:25.261Z,100181.20
2022-08-22T20:05:43.112Z,100178.61
2022-08-22T20:08:39.742Z,100182.48
2022-08-22T20:11:42.909Z,100180.41
2022-08-22T20:14:12.350Z,100173.79
2022-08-22T20:18:11.740Z,100172.59
2022-08-22T20:20:56.071Z,100171.30
2022-08-22T20:23:31.229Z,100174.20
2022-08-22T20:26:01.467Z,100171.33
2022-08-22T20:28:53.007Z,100166.93
2022-08-22T20:31:28.880Z,100161.69
2022-08-22T20:34:05.307Z,100155.54
2022-08-22T20:36:36.218Z,100155.42
2022-08-22T20:39:14.889Z,100160.00
2022-08-22T20:41:49.248Z,100157.28
2022-08-22T20:44:23.516Z,100155.95
2022-08-22T20:47:04.576Z,100154.66
2022-08-22T20:49:37.809Z,100155.40
2022-08-22T20:52:10.619Z,100159.66
2022-08-22T20:54:43.263Z,100158.48
2022-08-22T20:57:19.865Z,100158.89
2022-08-22T20:59:55.783Z,100157.42
2022-08-22T21:02:31.912Z,100156.55
2022-08-22T21:05:22.081Z,100153.56
2022-08-22T21:08:25.144Z,100155.11
2022-08-22T21:11:19.413Z,100149.04
2022-08-22T21:13:49.551Z,100147.05
2022-08-22T21:16:32.793Z,100145.89
2022-08-22T21:19:02.907Z,100146.80
2022-08-22T21:21:35.290Z,100141.92
2022-08-22T21:24:08.898Z,100139.20
2022-08-22T21:26:39.903Z,100136.19
2022-08-22T21:29:22.857Z,100134.08
2022-08-22T21:32:04.462Z,100133.74
2022-08-22T21:34:44.152Z,100124.98
2022-08-22T21:37:17.545Z,100126.88
2022-08-22T21:40:01.183Z,100127.61
2022-08-22T21:42:36.773Z,100120.21
2022-08-22T21:45:10.052Z,100121.20
2022-08-22T21:47:42.995Z,100119.68
2022-08-22T21:50:23.673Z,100119.52
2022-08-22T21:52:55.270Z,100114.60
2022-08-22T21:55:43.499Z,100111.40
2022-08-22T21:58:35.482Z,100110.13
2022-08-22T22:01:28.964Z,100107.85
2022-08-22T22:04:03.608Z,100112.48
2022-08-22T22:06:35.994Z,100112.69
2022-08-22T22:09:06.959Z,100113.98
2022-08-22T22:11:37.723Z,100114.46
2022-08-22T22:14:09.613Z,100113.20
2022-08-22T22:16:41.976Z,100114.65
2022-08-22T22:19:10.781Z,100113.86
2022-08-22T22:21:41.423Z,100109.39
2022-08-22T22:24:10.886Z,100106.30
2022-08-22T22:26:39.809Z,100105.58
2022-08-22T22:29:12.822Z,100103.95
2022-08-22T22:31:43.476Z,100102.95
2022-08-22T22:34:12.242Z,100105.69
2022-08-22T22:36:44.895Z,100110.23
2022-08-22T22:39:14.964Z,100113.40
2022-08-22T22:41:44.739Z,100113.23
2022-08-22T22:44:13.778Z,100110.58
2022-08-22T22:46:44.504Z,100102.48
2022-08-22T22:49:14.848Z,100101.88
2022-08-22T22:51:44.503Z,100103.87
2022-08-22T22:54:15.888Z,100106.04
2022-08-22T22:56:47.998Z,100104.52
2022-08-22T22:59:19.616Z,100101.02
2022-08-22T23:02:02.916Z,100101.46
2022-08-22T23:04:38.248Z,100100.45
2022-08-22T23:07:10.327Z,100100.58
2022-08-22T23:09:44.485Z,100096.70
2022-08-22T23:12:17.199Z,100095.23
2022-08-22T23:14:45.951Z,100093.22
2022-08-22T23:17:16.113Z,100098.67
2022-08-22T23:19:48.906Z,100099.80
2022-08-22T23:22:20.581Z,100103.41
2022-08-22T23:24:51.845Z,100102.33
2022-08-22T23:27:23.094Z,100104.75
2022-08-22T23:29:52.523Z,100101.34
2022-08-22T23:32:23.662Z,100100.74
2022-08-22T23:34:53.996Z,100101.36
2022-08-22T23:37:25.484Z,100094.05
2022-08-22T23:39:55.700Z,100093.59
2022-08-22T23:42:26.874Z,100091.36
2022-08-22T23:44:55.516Z,100093.03
2022-08-22T23:47:25.677Z,100092.44
2022-08-22T23:49:57.705Z,100090.95
2022-08-22T23:52:29.217Z,100089.00
2022-08-22T23:54:59.833Z,100084.77
2022-08-22T23:57:31.512Z,100085.77
